sensor_id;sensor_type;location;lat;lon;timestamp;P1;durP1;ratioP1;P2;durP2;ratioP2
64199;SDS011;50516;52.272;5.136;2023-02-20T00:00:35;17.20;;;8.40;;
64199;SDS011;50516;52.272;5.136;2023-02-20T00:03:03;15.98;;;8.65;;
64199;SDS011;50516;52.272;5.136;2023-02-20T00:05:28;15.85;;;9.48;;
64199;SDS011;50516;52.272;5.136;2023-02-20T00:07:54;17.48;;;9.23;;
64199;SDS011;50516;52.272;5.136;2023-02-20T00:10:19;18.30;;;10.10;;
64199;SDS011;50516;52.272;5.136;2023-02-20T00:12:45;15.40;;;9.32;;
64199;SDS011;50516;52.272;5.136;2023-02-20T00:15:11;16.70;;;9.20;;
64199;SDS011;50516;52.272;5.136;2023-02-20T00:17:38;16.42;;;10.13;;
64199;SDS011;50516;52.272;5.136;2023-02-20T00:20:05;17.40;;;10.02;;
64199;SDS011;50516;52.272;5.136;2023-02-20T00:22:31;17.67;;;9.90;;
64199;SDS011;50516;52.272;5.136;2023-02-20T00:24:57;16.88;;;9.80;;
64199;SDS011;50516;52.272;5.136;2023-02-20T00:27:23;15.80;;;10.70;;
64199;SDS011;50516;52.272;5.136;2023-02-20T00:29:48;25.27;;;10.82;;
64199;SDS011;50516;52.272;5.136;2023-02-20T00:32:14;22.30;;;11.55;;
64199;SDS011;50516;52.272;5.136;2023-02-20T00:34:39;18.48;;;9.82;;
64199;SDS011;50516;52.272;5.136;2023-02-20T00:37:05;19.63;;;9.95;;
64199;SDS011;50516;52.272;5.136;2023-02-20T00:39:30;17.42;;;10.10;;
64199;SDS011;50516;52.272;5.136;2023-02-20T00:41:56;18.95;;;10.38;;
64199;SDS011;50516;52.272;5.136;2023-02-20T00:44:22;19.10;;;10.45;;
64199;SDS011;50516;52.272;5.136;2023-02-20T00:46:48;21.70;;;11.18;;
64199;SDS011;50516;52.272;5.136;2023-02-20T00:49:14;24.55;;;12.38;;
64199;SDS011;50516;52.272;5.136;2023-02-20T00:51:39;18.23;;;10.27;;
64199;SDS011;50516;52.272;5.136;2023-02-20T00:54:05;20.60;;;10.68;;
64199;SDS011;50516;52.272;5.136;2023-02-20T00:56:30;23.67;;;10.30;;
64199;SDS011;50516;52.272;5.136;2023-02-20T00:58:56;20.20;;;11.95;;
64199;SDS011;50516;52.272;5.136;2023-02-20T01:01:21;18.00;;;10.68;;
64199;SDS011;50516;52.272;5.136;2023-02-20T01:03:48;24.40;;;11.13;;
64199;SDS011;50516;52.272;5.136;2023-02-20T01:06:14;19.73;;;10.82;;
64199;SDS011;50516;52.272;5.136;2023-02-20T01:08:40;22.92;;;11.13;;
64199;SDS011;50516;52.272;5.136;2023-02-20T01:11:05;19.50;;;11.43;;
64199;SDS011;50516;52.272;5.136;2023-02-20T01:13:31;18.10;;;11.15;;
64199;SDS011;50516;52.272;5.136;2023-02-20T01:15:56;18.60;;;12.05;;
64199;SDS011;50516;52.272;5.136;2023-02-20T01:18:21;17.35;;;10.85;;
64199;SDS011;50516;52.272;5.136;2023-02-20T01:20:47;19.58;;;10.23;;
64199;SDS011;50516;52.272;5.136;2023-02-20T01:23:12;18.00;;;10.98;;
64199;SDS011;50516;52.272;5.136;2023-02-20T01:25:37;22.80;;;11.40;;
64199;SDS011;50516;52.272;5.136;2023-02-20T01:28:03;21.63;;;10.95;;
64199;SDS011;50516;52.272;5.136;2023-02-20T01:30:28;21.52;;;11.45;;
64199;SDS011;50516;52.272;5.136;2023-02-20T01:32:54;26.63;;;10.27;;
64199;SDS011;50516;52.272;5.136;2023-02-20T01:35:19;18.60;;;10.65;;
64199;SDS011;50516;52.272;5.136;2023-02-20T01:37:44;15.43;;;10.43;;
64199;SDS011;50516;52.272;5.136;2023-02-20T01:40:18;24.08;;;10.52;;
64199;SDS011;50516;52.272;5.136;2023-02-20T01:42:48;17.30;;;10.38;;
64199;SDS011;50516;52.272;5.136;2023-02-20T01:47:48;20.20;;;11.20;;
64199;SDS011;50516;52.272;5.136;2023-02-20T01:50:19;20.38;;;11.77;;
64199;SDS011;50516;52.272;5.136;2023-02-20T01:52:50;22.50;;;10.50;;
64199;SDS011;50516;52.272;5.136;2023-02-20T01:55:26;20.92;;;11.50;;
64199;SDS011;50516;52.272;5.136;2023-02-20T01:58:00;22.70;;;10.40;;
64199;SDS011;50516;52.272;5.136;2023-02-20T02:00:34;19.50;;;11.50;;
64199;SDS011;50516;52.272;5.136;2023-02-20T02:03:09;29.20;;;12.52;;
64199;SDS011;50516;52.272;5.136;2023-02-20T02:05:38;24.83;;;11.35;;
64199;SDS011;50516;52.272;5.136;2023-02-20T02:08:08;22.65;;;11.38;;
64199;SDS011;50516;52.272;5.136;2023-02-20T02:10:36;21.48;;;11.90;;
64199;SDS011;50516;52.272;5.136;2023-02-20T02:13:11;27.13;;;13.20;;
64199;SDS011;50516;52.272;5.136;2023-02-20T02:15:36;27.00;;;12.60;;
64199;SDS011;50516;52.272;5.136;2023-02-20T02:37:48;29.33;;;18.38;;
64199;SDS011;50516;52.272;5.136;2023-02-20T02:43:14;47.83;;;21.15;;
64199;SDS011;50516;52.272;5.136;2023-02-20T02:48:31;45.97;;;22.65;;
64199;SDS011;50516;52.272;5.136;2023-02-20T02:51:06;48.88;;;25.27;;
64199;SDS011;50516;52.272;5.136;2023-02-20T02:53:37;42.45;;;24.65;;
64199;SDS011;50516;52.272;5.136;2023-02-20T02:56:03;40.08;;;24.92;;
64199;SDS011;50516;52.272;5.136;2023-02-20T02:58:46;48.22;;;23.70;;
64199;SDS011;50516;52.272;5.136;2023-02-20T03:01:12;43.75;;;24.02;;
64199;SDS011;50516;52.272;5.136;2023-02-20T03:03:42;42.38;;;25.00;;
64199;SDS011;50516;52.272;5.136;2023-02-20T03:06:10;49.95;;;26.20;;
64199;SDS011;50516;52.272;5.136;2023-02-20T03:11:12;46.60;;;26.13;;
64199;SDS011;50516;52.272;5.136;2023-02-20T03:13:40;54.58;;;27.35;;
64199;SDS011;50516;52.272;5.136;2023-02-20T03:16:40;53.72;;;26.52;;
64199;SDS011;50516;52.272;5.136;2023-02-20T03:19:15;47.85;;;25.92;;
64199;SDS011;50516;52.272;5.136;2023-02-20T03:21:47;54.47;;;27.38;;
64199;SDS011;50516;52.272;5.136;2023-02-20T03:24:15;48.22;;;26.52;;
64199;SDS011;50516;52.272;5.136;2023-02-20T03:26:43;51.42;;;27.75;;
64199;SDS011;50516;52.272;5.136;2023-02-20T03:29:11;52.03;;;28.63;;
64199;SDS011;50516;52.272;5.136;2023-02-20T03:31:51;54.97;;;27.17;;
64199;SDS011;50516;52.272;5.136;2023-02-20T03:34:39;46.97;;;25.50;;
64199;SDS011;50516;52.272;5.136;2023-02-20T03:37:26;49.65;;;27.17;;
64199;SDS011;50516;52.272;5.136;2023-02-20T03:40:13;60.72;;;27.73;;
64199;SDS011;50516;52.272;5.136;2023-02-20T03:43:06;52.60;;;25.42;;
64199;SDS011;50516;52.272;5.136;2023-02-20T03:45:48;44.00;;;24.15;;
64199;SDS011;50516;52.272;5.136;2023-02-20T03:48:19;50.22;;;24.08;;
64199;SDS011;50516;52.272;5.136;2023-02-20T03:50:57;48.85;;;24.90;;
64199;SDS011;50516;52.272;5.136;2023-02-20T03:53:22;52.45;;;26.85;;
64199;SDS011;50516;52.272;5.136;2023-02-20T03:55:49;59.15;;;27.60;;
64199;SDS011;50516;52.272;5.136;2023-02-20T03:58:17;51.35;;;25.58;;
64199;SDS011;50516;52.272;5.136;2023-02-20T04:00:47;44.72;;;23.63;;
64199;SDS011;50516;52.272;5.136;2023-02-20T04:03:17;49.13;;;24.52;;
64199;SDS011;50516;52.272;5.136;2023-02-20T04:05:46;38.67;;;22.90;;
64199;SDS011;50516;52.272;5.136;2023-02-20T04:08:20;45.75;;;22.35;;
64199;SDS011;50516;52.272;5.136;2023-02-20T04:10:55;38.40;;;20.83;;
64199;SDS011;50516;52.272;5.136;2023-02-20T04:13:24;53.08;;;21.38;;
64199;SDS011;50516;52.272;5.136;2023-02-20T04:15:50;49.03;;;22.80;;
64199;SDS011;50516;52.272;5.136;2023-02-20T04:18:17;33.63;;;18.67;;
64199;SDS011;50516;52.272;5.136;2023-02-20T04:20:45;32.40;;;18.50;;
64199;SDS011;50516;52.272;5.136;2023-02-20T04:23:15;49.08;;;20.27;;
64199;SDS011;50516;52.272;5.136;2023-02-20T04:25:46;41.22;;;18.13;;
64199;SDS011;50516;52.272;5.136;2023-02-20T04:28:16;35.33;;;18.65;;
64199;SDS011;50516;52.272;5.136;2023-02-20T04:30:42;41.25;;;18.10;;
64199;SDS011;50516;52.272;5.136;2023-02-20T04:33:11;38.90;;;17.65;;
64199;SDS011;50516;52.272;5.136;2023-02-20T04:35:38;37.63;;;16.98;;
64199;SDS011;50516;52.272;5.136;2023-02-20T04:38:04;46.85;;;18.60;;
64199;SDS011;50516;52.272;5.136;2023-02-20T04:40:30;35.72;;;16.42;;
64199;SDS011;50516;52.272;5.136;2023-02-20T04:42:55;40.80;;;16.45;;
64199;SDS011;50516;52.272;5.136;2023-02-20T04:45:21;30.20;;;16.33;;
64199;SDS011;50516;52.272;5.136;2023-02-20T04:47:46;41.65;;;16.80;;
64199;SDS011;50516;52.272;5.136;2023-02-20T04:50:16;34.47;;;14.63;;
64199;SDS011;50516;52.272;5.136;2023-02-20T04:52:45;32.13;;;13.77;;
64199;SDS011;50516;52.272;5.136;2023-02-20T04:55:10;30.67;;;15.38;;
64199;SDS011;50516;52.272;5.136;2023-02-20T04:57:35;35.30;;;14.88;;
64199;SDS011;50516;52.272;5.136;2023-02-20T05:00:01;39.35;;;14.27;;
64199;SDS011;50516;52.272;5.136;2023-02-20T05:02:27;41.05;;;16.73;;
64199;SDS011;50516;52.272;5.136;2023-02-20T05:04:53;35.03;;;14.07;;
64199;SDS011;50516;52.272;5.136;2023-02-20T05:07:18;40.25;;;16.48;;
64199;SDS011;50516;52.272;5.136;2023-02-20T05:09:43;33.38;;;13.68;;
64199;SDS011;50516;52.272;5.136;2023-02-20T05:12:09;36.20;;;15.48;;
64199;SDS011;50516;52.272;5.136;2023-02-20T05:14:34;37.28;;;14.85;;
64199;SDS011;50516;52.272;5.136;2023-02-20T05:17:00;30.20;;;14.18;;
64199;SDS011;50516;52.272;5.136;2023-02-20T05:19:25;36.92;;;18.65;;
64199;SDS011;50516;52.272;5.136;2023-02-20T05:21:51;40.70;;;17.38;;
64199;SDS011;50516;52.272;5.136;2023-02-20T05:24:35;33.50;;;14.45;;
64199;SDS011;50516;52.272;5.136;2023-02-20T05:27:00;35.55;;;13.90;;
64199;SDS011;50516;52.272;5.136;2023-02-20T05:29:25;39.50;;;15.27;;
64199;SDS011;50516;52.272;5.136;2023-02-20T05:31:51;32.60;;;13.68;;
64199;SDS011;50516;52.272;5.136;2023-02-20T05:34:16;42.13;;;14.13;;
64199;SDS011;50516;52.272;5.136;2023-02-20T05:36:41;31.65;;;13.88;;
64199;SDS011;50516;52.272;5.136;2023-02-20T05:39:07;24.65;;;12.35;;
64199;SDS011;50516;52.272;5.136;2023-02-20T05:41:32;33.67;;;13.95;;
64199;SDS011;50516;52.272;5.136;2023-02-20T05:43:58;38.13;;;14.32;;
64199;SDS011;50516;52.272;5.136;2023-02-20T05:46:24;34.00;;;12.93;;
64199;SDS011;50516;52.272;5.136;2023-02-20T05:48:51;38.65;;;14.25;;
64199;SDS011;50516;52.272;5.136;2023-02-20T05:51:21;30.13;;;12.77;;
64199;SDS011;50516;52.272;5.136;2023-02-20T05:53:47;32.13;;;12.73;;
64199;SDS011;50516;52.272;5.136;2023-02-20T05:56:13;30.00;;;11.65;;
64199;SDS011;50516;52.272;5.136;2023-02-20T05:58:40;32.15;;;13.23;;
64199;SDS011;50516;52.272;5.136;2023-02-20T06:01:07;32.85;;;12.15;;
64199;SDS011;50516;52.272;5.136;2023-02-20T06:03:32;36.47;;;13.45;;
64199;SDS011;50516;52.272;5.136;2023-02-20T06:05:57;31.98;;;12.98;;
64199;SDS011;50516;52.272;5.136;2023-02-20T06:08:23;25.67;;;12.48;;
64199;SDS011;50516;52.272;5.136;2023-02-20T06:10:48;34.63;;;12.98;;
64199;SDS011;50516;52.272;5.136;2023-02-20T06:13:13;36.13;;;14.32;;
64199;SDS011;50516;52.272;5.136;2023-02-20T06:15:39;35.20;;;13.50;;
64199;SDS011;50516;52.272;5.136;2023-02-20T06:18:04;35.22;;;13.05;;
64199;SDS011;50516;52.272;5.136;2023-02-20T06:20:29;41.53;;;13.75;;
64199;SDS011;50516;52.272;5.136;2023-02-20T06:22:55;30.35;;;13.30;;
64199;SDS011;50516;52.272;5.136;2023-02-20T06:25:21;34.95;;;13.25;;
64199;SDS011;50516;52.272;5.136;2023-02-20T06:27:46;30.05;;;13.20;;
64199;SDS011;50516;52.272;5.136;2023-02-20T06:30:12;27.15;;;14.23;;
64199;SDS011;50516;52.272;5.136;2023-02-20T06:32:37;29.35;;;14.48;;
64199;SDS011;50516;52.272;5.136;2023-02-20T06:35:03;30.08;;;13.75;;
64199;SDS011;50516;52.272;5.136;2023-02-20T06:37:29;25.30;;;13.73;;
64199;SDS011;50516;52.272;5.136;2023-02-20T06:39:54;31.30;;;14.15;;
64199;SDS011;50516;52.272;5.136;2023-02-20T06:42:20;35.75;;;14.68;;
64199;SDS011;50516;52.272;5.136;2023-02-20T06:44:46;30.83;;;13.68;;
64199;SDS011;50516;52.272;5.136;2023-02-20T06:47:11;26.77;;;13.30;;
64199;SDS011;50516;52.272;5.136;2023-02-20T06:49:37;31.40;;;13.43;;
64199;SDS011;50516;52.272;5.136;2023-02-20T06:52:03;27.83;;;12.50;;
64199;SDS011;50516;52.272;5.136;2023-02-20T06:54:29;36.03;;;14.25;;
64199;SDS011;50516;52.272;5.136;2023-02-20T06:56:54;29.98;;;13.63;;
64199;SDS011;50516;52.272;5.136;2023-02-20T06:59:21;34.17;;;14.15;;
64199;SDS011;50516;52.272;5.136;2023-02-20T07:01:47;31.55;;;13.70;;
64199;SDS011;50516;52.272;5.136;2023-02-20T07:04:18;32.38;;;13.23;;
64199;SDS011;50516;52.272;5.136;2023-02-20T07:06:46;36.95;;;15.50;;
64199;SDS011;50516;52.272;5.136;2023-02-20T07:09:11;28.80;;;13.45;;
64199;SDS011;50516;52.272;5.136;2023-02-20T07:11:37;31.77;;;13.55;;
64199;SDS011;50516;52.272;5.136;2023-02-20T07:14:03;29.42;;;14.00;;
64199;SDS011;50516;52.272;5.136;2023-02-20T07:16:29;29.27;;;13.77;;
64199;SDS011;50516;52.272;5.136;2023-02-20T07:18:55;31.02;;;12.80;;
64199;SDS011;50516;52.272;5.136;2023-02-20T07:21:20;35.70;;;14.68;;
64199;SDS011;50516;52.272;5.136;2023-02-20T07:23:46;33.80;;;15.35;;
64199;SDS011;50516;52.272;5.136;2023-02-20T07:26:18;35.58;;;15.07;;
64199;SDS011;50516;52.272;5.136;2023-02-20T07:28:46;33.38;;;13.70;;
64199;SDS011;50516;52.272;5.136;2023-02-20T07:31:11;34.47;;;14.30;;
64199;SDS011;50516;52.272;5.136;2023-02-20T07:33:37;34.20;;;14.07;;
64199;SDS011;50516;52.272;5.136;2023-02-20T07:36:02;33.33;;;13.10;;
64199;SDS011;50516;52.272;5.136;2023-02-20T07:38:28;27.08;;;12.82;;
64199;SDS011;50516;52.272;5.136;2023-02-20T07:40:53;27.50;;;13.75;;
64199;SDS011;50516;52.272;5.136;2023-02-20T07:43:19;33.78;;;12.85;;
64199;SDS011;50516;52.272;5.136;2023-02-20T07:45:44;30.10;;;13.45;;
64199;SDS011;50516;52.272;5.136;2023-02-20T07:48:10;34.10;;;13.63;;
64199;SDS011;50516;52.272;5.136;2023-02-20T07:50:35;32.40;;;12.70;;
64199;SDS011;50516;52.272;5.136;2023-02-20T07:53:00;34.15;;;13.75;;
64199;SDS011;50516;52.272;5.136;2023-02-20T07:55:26;37.83;;;14.60;;
64199;SDS011;50516;52.272;5.136;2023-02-20T07:57:51;33.10;;;13.32;;
64199;SDS011;50516;52.272;5.136;2023-02-20T08:00:19;27.77;;;11.50;;
64199;SDS011;50516;52.272;5.136;2023-02-20T08:02:45;29.17;;;12.50;;
64199;SDS011;50516;52.272;5.136;2023-02-20T08:05:10;30.20;;;12.43;;
64199;SDS011;50516;52.272;5.136;2023-02-20T08:07:36;30.52;;;11.50;;
64199;SDS011;50516;52.272;5.136;2023-02-20T08:10:02;31.20;;;11.43;;
64199;SDS011;50516;52.272;5.136;2023-02-20T08:12:28;30.45;;;12.27;;
64199;SDS011;50516;52.272;5.136;2023-02-20T08:14:53;27.90;;;11.35;;
64199;SDS011;50516;52.272;5.136;2023-02-20T08:17:18;24.85;;;11.10;;
64199;SDS011;50516;52.272;5.136;2023-02-20T08:19:44;26.35;;;11.68;;
64199;SDS011;50516;52.272;5.136;2023-02-20T08:22:09;28.40;;;10.95;;
64199;SDS011;50516;52.272;5.136;2023-02-20T08:24:35;24.63;;;11.48;;
64199;SDS011;50516;52.272;5.136;2023-02-20T08:27:02;27.33;;;10.52;;
64199;SDS011;50516;52.272;5.136;2023-02-20T08:29:27;20.20;;;10.63;;
64199;SDS011;50516;52.272;5.136;2023-02-20T08:31:53;24.30;;;10.40;;
64199;SDS011;50516;52.272;5.136;2023-02-20T08:34:18;27.05;;;11.65;;
64199;SDS011;50516;52.272;5.136;2023-02-20T08:36:43;24.85;;;11.27;;
64199;SDS011;50516;52.272;5.136;2023-02-20T08:39:09;24.35;;;10.48;;
64199;SDS011;50516;52.272;5.136;2023-02-20T08:41:40;25.95;;;12.75;;
64199;SDS011;50516;52.272;5.136;2023-02-20T08:44:06;26.25;;;10.68;;
64199;SDS011;50516;52.272;5.136;2023-02-20T08:46:32;22.60;;;11.45;;
64199;SDS011;50516;52.272;5.136;2023-02-20T08:48:57;38.35;;;13.70;;
64199;SDS011;50516;52.272;5.136;2023-02-20T08:51:23;23.88;;;10.77;;
64199;SDS011;50516;52.272;5.136;2023-02-20T08:53:50;24.77;;;12.13;;
64199;SDS011;50516;52.272;5.136;2023-02-20T08:56:19;26.65;;;11.38;;
64199;SDS011;50516;52.272;5.136;2023-02-20T08:58:45;24.80;;;11.85;;
64199;SDS011;50516;52.272;5.136;2023-02-20T09:01:10;19.27;;;11.10;;
64199;SDS011;50516;52.272;5.136;2023-02-20T09:03:36;21.50;;;12.43;;
64199;SDS011;50516;52.272;5.136;2023-02-20T09:06:05;31.05;;;12.50;;
64199;SDS011;50516;52.272;5.136;2023-02-20T09:08:31;24.70;;;11.88;;
64199;SDS011;50516;52.272;5.136;2023-02-20T09:10:57;22.35;;;11.27;;
64199;SDS011;50516;52.272;5.136;2023-02-20T09:13:22;24.02;;;11.50;;
64199;SDS011;50516;52.272;5.136;2023-02-20T09:15:47;22.83;;;10.77;;
64199;SDS011;50516;52.272;5.136;2023-02-20T09:18:13;30.00;;;10.98;;
64199;SDS011;50516;52.272;5.136;2023-02-20T09:20:39;23.73;;;11.73;;
64199;SDS011;50516;52.272;5.136;2023-02-20T09:23:05;28.33;;;12.00;;
64199;SDS011;50516;52.272;5.136;2023-02-20T09:25:31;23.80;;;10.13;;
64199;SDS011;50516;52.272;5.136;2023-02-20T09:27:56;21.52;;;10.88;;
64199;SDS011;50516;52.272;5.136;2023-02-20T09:30:22;29.67;;;10.68;;
64199;SDS011;50516;52.272;5.136;2023-02-20T09:32:48;20.80;;;9.55;;
64199;SDS011;50516;52.272;5.136;2023-02-20T09:35:18;17.67;;;9.32;;
64199;SDS011;50516;52.272;5.136;2023-02-20T09:37:48;16.58;;;9.07;;
64199;SDS011;50516;52.272;5.136;2023-02-20T09:40:14;17.58;;;8.90;;
64199;SDS011;50516;52.272;5.136;2023-02-20T09:51:14;15.32;;;8.55;;
64199;SDS011;50516;52.272;5.136;2023-02-20T09:56:36;15.45;;;8.80;;
64199;SDS011;50516;52.272;5.136;2023-02-20T10:04:30;19.92;;;9.70;;
64199;SDS011;50516;52.272;5.136;2023-02-20T10:07:05;19.65;;;8.02;;
64199;SDS011;50516;52.272;5.136;2023-02-20T10:09:57;16.00;;;7.00;;
64199;SDS011;50516;52.272;5.136;2023-02-20T10:12:37;19.23;;;6.95;;
64199;SDS011;50516;52.272;5.136;2023-02-20T10:26:10;16.50;;;7.23;;
64199;SDS011;50516;52.272;5.136;2023-02-20T10:28:41;16.92;;;7.43;;
64199;SDS011;50516;52.272;5.136;2023-02-20T10:34:16;16.40;;;7.43;;
64199;SDS011;50516;52.272;5.136;2023-02-20T10:36:46;15.55;;;8.48;;
64199;SDS011;50516;52.272;5.136;2023-02-20T10:39:16;14.45;;;7.22;;
64199;SDS011;50516;52.272;5.136;2023-02-20T10:41:45;16.08;;;7.88;;
64199;SDS011;50516;52.272;5.136;2023-02-20T10:50:17;15.35;;;7.00;;
64199;SDS011;50516;52.272;5.136;2023-02-20T10:52:36;14.93;;;7.15;;
64199;SDS011;50516;52.272;5.136;2023-02-20T10:58:36;15.93;;;7.03;;
64199;SDS011;50516;52.272;5.136;2023-02-20T11:00:53;18.25;;;7.60;;
64199;SDS011;50516;52.272;5.136;2023-02-20T11:03:24;17.02;;;7.25;;
64199;SDS011;50516;52.272;5.136;2023-02-20T11:05:54;11.18;;;6.82;;
64199;SDS011;50516;52.272;5.136;2023-02-20T11:08:23;14.43;;;7.15;;
64199;SDS011;50516;52.272;5.136;2023-02-20T11:10:52;19.23;;;7.65;;
64199;SDS011;50516;52.272;5.136;2023-02-20T11:13:23;15.50;;;7.35;;
64199;SDS011;50516;52.272;5.136;2023-02-20T11:15:51;14.27;;;6.82;;
64199;SDS011;50516;52.272;5.136;2023-02-20T11:18:22;13.27;;;6.38;;
64199;SDS011;50516;52.272;5.136;2023-02-20T11:20:50;13.93;;;7.32;;
64199;SDS011;50516;52.272;5.136;2023-02-20T11:26:26;14.20;;;8.00;;
64199;SDS011;50516;52.272;5.136;2023-02-20T11:31:26;15.88;;;8.18;;
64199;SDS011;50516;52.272;5.136;2023-02-20T11:33:53;15.63;;;8.10;;
64199;SDS011;50516;52.272;5.136;2023-02-20T11:36:21;14.40;;;7.50;;
64199;SDS011;50516;52.272;5.136;2023-02-20T11:38:55;12.93;;;7.13;;
64199;SDS011;50516;52.272;5.136;2023-02-20T11:41:25;12.10;;;6.82;;
64199;SDS011;50516;52.272;5.136;2023-02-20T11:44:15;13.88;;;7.18;;
64199;SDS011;50516;52.272;5.136;2023-02-20T11:46:44;13.65;;;7.22;;
64199;SDS011;50516;52.272;5.136;2023-02-20T11:51:52;12.35;;;6.45;;
64199;SDS011;50516;52.272;5.136;2023-02-20T11:54:40;12.07;;;6.18;;
64199;SDS011;50516;52.272;5.136;2023-02-20T11:57:25;21.45;;;7.05;;
64199;SDS011;50516;52.272;5.136;2023-02-20T12:02:36;12.48;;;6.07;;
64199;SDS011;50516;52.272;5.136;2023-02-20T12:05:13;15.85;;;6.85;;
64199;SDS011;50516;52.272;5.136;2023-02-20T12:10:49;11.65;;;6.47;;
64199;SDS011;50516;52.272;5.136;2023-02-20T12:13:14;11.68;;;5.30;;
64199;SDS011;50516;52.272;5.136;2023-02-20T12:15:41;12.60;;;5.47;;
64199;SDS011;50516;52.272;5.136;2023-02-20T12:18:25;15.07;;;5.72;;
64199;SDS011;50516;52.272;5.136;2023-02-20T12:35:03;16.42;;;5.18;;
64199;SDS011;50516;52.272;5.136;2023-02-20T12:40:39;10.27;;;5.13;;
64199;SDS011;50516;52.272;5.136;2023-02-20T12:46:02;8.90;;;4.88;;
64199;SDS011;50516;52.272;5.136;2023-02-20T12:54:06;15.68;;;5.00;;
64199;SDS011;50516;52.272;5.136;2023-02-20T12:56:52;15.90;;;5.20;;
64199;SDS011;50516;52.272;5.136;2023-02-20T13:00:02;14.02;;;5.65;;
64199;SDS011;50516;52.272;5.136;2023-02-20T13:05:03;13.02;;;5.50;;
64199;SDS011;50516;52.272;5.136;2023-02-20T13:08:34;11.70;;;5.72;;
64199;SDS011;50516;52.272;5.136;2023-02-20T13:10:29;16.75;;;6.80;;
64199;SDS011;50516;52.272;5.136;2023-02-20T13:12:57;14.57;;;6.78;;
64199;SDS011;50516;52.272;5.136;2023-02-20T13:18:39;13.27;;;6.93;;
64199;SDS011;50516;52.272;5.136;2023-02-20T13:21:14;9.45;;;5.80;;
64199;SDS011;50516;52.272;5.136;2023-02-20T13:23:41;10.95;;;5.45;;
64199;SDS011;50516;52.272;5.136;2023-02-20T13:29:12;14.52;;;5.88;;
64199;SDS011;50516;52.272;5.136;2023-02-20T13:31:43;13.65;;;5.80;;
64199;SDS011;50516;52.272;5.136;2023-02-20T13:36:36;9.00;;;4.97;;
64199;SDS011;50516;52.272;5.136;2023-02-20T13:46:54;9.10;;;4.75;;
64199;SDS011;50516;52.272;5.136;2023-02-20T13:57:51;10.95;;;5.07;;
64199;SDS011;50516;52.272;5.136;2023-02-20T14:02:50;14.55;;;6.22;;
64199;SDS011;50516;52.272;5.136;2023-02-20T14:07:46;8.73;;;5.80;;
64199;SDS011;50516;52.272;5.136;2023-02-20T14:12:56;8.13;;;5.40;;
64199;SDS011;50516;52.272;5.136;2023-02-20T14:15:22;10.70;;;5.78;;
64199;SDS011;50516;52.272;5.136;2023-02-20T14:17:48;10.93;;;5.63;;
64199;SDS011;50516;52.272;5.136;2023-02-20T14:20:21;13.77;;;6.40;;
64199;SDS011;50516;52.272;5.136;2023-02-20T14:23:04;12.65;;;6.22;;
64199;SDS011;50516;52.272;5.136;2023-02-20T14:25:31;14.05;;;5.75;;
64199;SDS011;50516;52.272;5.136;2023-02-20T14:28:07;8.13;;;5.55;;
64199;SDS011;50516;52.272;5.136;2023-02-20T14:30:37;10.55;;;5.70;;
64199;SDS011;50516;52.272;5.136;2023-02-20T14:33:02;13.95;;;6.78;;
64199;SDS011;50516;52.272;5.136;2023-02-20T14:40:55;10.00;;;6.40;;
64199;SDS011;50516;52.272;5.136;2023-02-20T14:43:21;12.35;;;6.25;;
64199;SDS011;50516;52.272;5.136;2023-02-20T14:46:02;14.70;;;5.93;;
64199;SDS011;50516;52.272;5.136;2023-02-20T14:48:31;11.13;;;5.93;;
64199;SDS011;50516;52.272;5.136;2023-02-20T14:51:02;13.50;;;5.57;;
64199;SDS011;50516;52.272;5.136;2023-02-20T14:53:55;11.95;;;6.22;;
64199;SDS011;50516;52.272;5.136;2023-02-20T14:56:41;14.25;;;6.07;;
64199;SDS011;50516;52.272;5.136;2023-02-20T15:02:00;9.85;;;5.85;;
64199;SDS011;50516;52.272;5.136;2023-02-20T15:04:36;10.10;;;6.15;;
64199;SDS011;50516;52.272;5.136;2023-02-20T15:07:03;12.15;;;6.75;;
64199;SDS011;50516;52.272;5.136;2023-02-20T15:09:50;15.52;;;8.15;;
64199;SDS011;50516;52.272;5.136;2023-02-20T15:12:19;13.70;;;7.90;;
64199;SDS011;50516;52.272;5.136;2023-02-20T15:15:06;11.57;;;6.90;;
64199;SDS011;50516;52.272;5.136;2023-02-20T15:17:38;17.05;;;8.27;;
64199;SDS011;50516;52.272;5.136;2023-02-20T15:25:39;13.27;;;7.35;;
64199;SDS011;50516;52.272;5.136;2023-02-20T15:33:36;13.20;;;8.75;;
64199;SDS011;50516;52.272;5.136;2023-02-20T15:36:10;16.23;;;8.15;;
64199;SDS011;50516;52.272;5.136;2023-02-20T15:38:37;14.57;;;7.50;;
64199;SDS011;50516;52.272;5.136;2023-02-20T15:41:03;13.50;;;8.73;;
64199;SDS011;50516;52.272;5.136;2023-02-20T15:43:29;20.65;;;8.25;;
64199;SDS011;50516;52.272;5.136;2023-02-20T15:45:55;19.42;;;8.15;;
64199;SDS011;50516;52.272;5.136;2023-02-20T15:48:21;12.15;;;7.82;;
64199;SDS011;50516;52.272;5.136;2023-02-20T15:50:46;13.38;;;7.82;;
64199;SDS011;50516;52.272;5.136;2023-02-20T15:53:16;16.52;;;8.90;;
64199;SDS011;50516;52.272;5.136;2023-02-20T15:55:50;19.58;;;9.52;;
64199;SDS011;50516;52.272;5.136;2023-02-20T15:58:21;13.55;;;8.70;;
64199;SDS011;50516;52.272;5.136;2023-02-20T16:00:49;21.77;;;9.00;;
64199;SDS011;50516;52.272;5.136;2023-02-20T16:03:15;18.30;;;8.52;;
64199;SDS011;50516;52.272;5.136;2023-02-20T16:05:40;15.85;;;8.60;;
64199;SDS011;50516;52.272;5.136;2023-02-20T16:08:06;17.15;;;9.70;;
64199;SDS011;50516;52.272;5.136;2023-02-20T16:10:31;19.08;;;9.75;;
64199;SDS011;50516;52.272;5.136;2023-02-20T16:12:56;17.08;;;9.30;;
64199;SDS011;50516;52.272;5.136;2023-02-20T16:15:23;22.85;;;9.30;;
64199;SDS011;50516;52.272;5.136;2023-02-20T16:17:52;19.00;;;9.07;;
64199;SDS011;50516;52.272;5.136;2023-02-20T16:20:19;13.60;;;8.63;;
64199;SDS011;50516;52.272;5.136;2023-02-20T16:22:52;16.92;;;8.93;;
64199;SDS011;50516;52.272;5.136;2023-02-20T16:25:19;14.23;;;7.85;;
64199;SDS011;50516;52.272;5.136;2023-02-20T16:27:46;23.65;;;9.07;;
64199;SDS011;50516;52.272;5.136;2023-02-20T16:30:36;16.58;;;8.35;;
64199;SDS011;50516;52.272;5.136;2023-02-20T16:35:46;23.27;;;9.57;;
64199;SDS011;50516;52.272;5.136;2023-02-20T16:38:15;16.63;;;9.55;;
64199;SDS011;50516;52.272;5.136;2023-02-20T16:40:41;15.45;;;8.45;;
64199;SDS011;50516;52.272;5.136;2023-02-20T16:43:06;16.38;;;8.10;;
64199;SDS011;50516;52.272;5.136;2023-02-20T16:45:32;16.48;;;8.35;;
64199;SDS011;50516;52.272;5.136;2023-02-20T16:47:58;18.80;;;9.55;;
64199;SDS011;50516;52.272;5.136;2023-02-20T16:50:27;17.58;;;8.73;;
64199;SDS011;50516;52.272;5.136;2023-02-20T16:52:54;20.75;;;9.52;;
64199;SDS011;50516;52.272;5.136;2023-02-20T16:55:26;14.80;;;8.75;;
64199;SDS011;50516;52.272;5.136;2023-02-20T16:57:52;13.90;;;8.68;;
64199;SDS011;50516;52.272;5.136;2023-02-20T17:00:19;27.58;;;9.23;;
64199;SDS011;50516;52.272;5.136;2023-02-20T17:02:49;19.38;;;9.45;;
64199;SDS011;50516;52.272;5.136;2023-02-20T17:05:15;17.33;;;9.55;;
64199;SDS011;50516;52.272;5.136;2023-02-20T17:07:42;22.02;;;10.07;;
64199;SDS011;50516;52.272;5.136;2023-02-20T17:10:07;20.25;;;9.82;;
64199;SDS011;50516;52.272;5.136;2023-02-20T17:12:33;22.80;;;10.63;;
64199;SDS011;50516;52.272;5.136;2023-02-20T17:14:59;19.58;;;11.55;;
64199;SDS011;50516;52.272;5.136;2023-02-20T17:17:25;16.20;;;10.38;;
64199;SDS011;50516;52.272;5.136;2023-02-20T17:19:51;15.23;;;10.20;;
64199;SDS011;50516;52.272;5.136;2023-02-20T17:22:17;22.15;;;11.30;;